createdAt,value
2017-07-20T00:00:48.161Z,74.00
2017-07-20T00:03:15.390Z,74.10
2017-07-20T00:05:41.885Z,74.00
2017-07-20T00:08:08.413Z,74.10
2017-07-20T00:10:35.650Z,74.30
2017-07-20T00:13:02.135Z,74.20
2017-07-20T00:15:28.639Z,74.20
2017-07-20T00:17:55.857Z,73.90
2017-07-20T00:20:22.328Z,73.90
2017-07-20T00:22:48.821Z,74.20
2017-07-20T00:25:15.290Z,74.20
2017-07-20T00:27:41.748Z,74.20
2017-07-20T00:30:08.197Z,74.20
2017-07-20T00:32:34.650Z,74.10
2017-07-20T00:35:01.146Z,75.30
2017-07-20T00:37:27.622Z,75.50
2017-07-20T00:39:54.101Z,75.90
2017-07-20T00:42:20.593Z,74.50
2017-07-20T00:44:47.066Z,75.00
2017-07-20T00:47:13.529Z,74.70
2017-07-20T00:49:40.049Z,75.30
2017-07-20T00:52:06.547Z,74.60
2017-07-20T00:54:33.782Z,74.20
2017-07-20T00:57:01.097Z,74.20
2017-07-20T00:59:27.559Z,74.40
2017-07-20T01:01:54.060Z,75.30
2017-07-20T01:04:20.580Z,76.90
2017-07-20T01:06:47.135Z,78.40
2017-07-20T01:09:13.617Z,77.10
2017-07-20T01:11:40.113Z,76.00
2017-07-20T01:14:06.578Z,77.10
2017-07-20T01:16:33.110Z,78.20
2017-07-20T01:18:59.633Z,76.80
2017-07-20T01:21:26.971Z,77.60
2017-07-20T01:23:53.465Z,77.60
2017-07-20T01:26:19.937Z,78.50
2017-07-20T01:28:46.449Z,76.80
2017-07-20T01:31:12.930Z,76.40
2017-07-20T01:33:40.182Z,75.50
2017-07-20T01:36:07.417Z,75.70
2017-07-20T01:38:33.898Z,75.00
2017-07-20T01:41:00.390Z,75.50
2017-07-20T01:43:27.011Z,75.50
2017-07-20T01:45:53.514Z,75.30
2017-07-20T01:48:20.077Z,78.50
2017-07-20T01:50:46.594Z,77.20
2017-07-20T01:53:13.087Z,76.60
2017-07-20T01:55:39.580Z,79.70
2017-07-20T01:58:06.081Z,78.20
2017-07-20T02:00:32.572Z,77.50
2017-07-20T02:02:59.096Z,78.00
2017-07-20T02:05:25.644Z,76.20
2017-07-20T02:07:52.184Z,76.80
2017-07-20T02:10:18.755Z,76.20
2017-07-20T02:12:45.243Z,76.00
2017-07-20T02:15:11.710Z,75.40
2017-07-20T02:17:38.207Z,75.00
2017-07-20T02:20:04.722Z,75.20
2017-07-20T02:22:31.222Z,74.50
2017-07-20T02:24:57.714Z,74.10
2017-07-20T02:27:24.220Z,74.10
2017-07-20T02:29:50.723Z,74.70
2017-07-20T02:32:17.212Z,75.30
2017-07-20T02:34:43.694Z,74.80
2017-07-20T02:37:10.207Z,73.80
2017-07-20T02:39:36.720Z,75.00
2017-07-20T02:42:03.192Z,74.20
2017-07-20T02:44:29.654Z,74.60
2017-07-20T02:46:56.107Z,74.10
2017-07-20T02:49:22.627Z,74.10
2017-07-20T02:51:49.254Z,74.60
2017-07-20T02:54:15.762Z,74.20
2017-07-20T02:56:42.250Z,74.20
2017-07-20T02:59:08.760Z,74.90
2017-07-20T03:01:35.278Z,74.60
2017-07-20T03:04:01.758Z,74.20
2017-07-20T03:06:28.254Z,74.20
2017-07-20T03:08:54.700Z,75.80
2017-07-20T03:11:21.156Z,76.30
2017-07-20T03:13:48.360Z,78.90
2017-07-20T03:16:14.819Z,79.40
2017-07-20T03:18:42.110Z,78.00
2017-07-20T03:21:08.565Z,77.90
2017-07-20T03:23:35.058Z,77.20
2017-07-20T03:26:01.590Z,76.30
2017-07-20T03:28:28.084Z,75.70
2017-07-20T03:30:54.594Z,75.40
2017-07-20T03:33:21.081Z,75.50
2017-07-20T03:35:47.541Z,75.30
2017-07-20T03:38:14.001Z,76.90
2017-07-20T03:40:41.234Z,76.70
2017-07-20T03:43:07.708Z,76.70
2017-07-20T03:45:41.237Z,75.70
2017-07-20T03:48:07.759Z,75.20
2017-07-20T03:50:35.007Z,75.30
2017-07-20T03:53:02.247Z,74.20
2017-07-20T03:55:28.715Z,74.80
2017-07-20T03:57:55.192Z,73.90
2017-07-20T04:00:22.457Z,74.80
2017-07-20T04:02:49.660Z,77.50
2017-07-20T04:05:16.163Z,77.40
2017-07-20T04:07:42.694Z,78.70
2017-07-20T04:10:09.162Z,78.00
2017-07-20T04:12:35.645Z,76.60
2017-07-20T04:15:02.929Z,76.70
2017-07-20T04:17:29.394Z,76.00
2017-07-20T04:19:55.878Z,75.40
2017-07-20T04:22:22.364Z,75.70
2017-07-20T04:24:48.770Z,76.50
2017-07-20T04:27:15.220Z,77.00
2017-07-20T04:29:41.705Z,78.90
2017-07-20T04:32:08.254Z,79.50
2017-07-20T04:34:34.749Z,79.50
2017-07-20T04:37:01.290Z,80.50
2017-07-20T04:39:27.770Z,80.00
2017-07-20T04:41:54.240Z,82.20
2017-07-20T04:44:20.727Z,82.40
2017-07-20T04:46:47.187Z,82.10
2017-07-20T04:49:13.669Z,81.90
2017-07-20T04:51:40.867Z,82.00
2017-07-20T04:54:07.354Z,81.90
2017-07-20T04:56:33.843Z,81.80
2017-07-20T04:59:00.318Z,83.20
2017-07-20T05:01:27.518Z,83.20
2017-07-20T05:03:53.994Z,83.10
2017-07-20T05:06:21.226Z,83.00
2017-07-20T05:08:47.721Z,83.00
2017-07-20T05:11:14.198Z,83.20
2017-07-20T05:13:41.472Z,84.30
2017-07-20T05:16:07.949Z,84.20
2017-07-20T05:18:34.414Z,84.30
2017-07-20T05:21:00.874Z,84.10
2017-07-20T05:23:27.374Z,84.50
2017-07-20T05:25:53.859Z,86.00
2017-07-20T05:28:20.318Z,83.70
2017-07-20T05:30:46.827Z,85.00
2017-07-20T05:33:13.356Z,84.20
2017-07-20T05:35:39.894Z,84.80
2017-07-20T05:38:06.394Z,83.60
2017-07-20T05:40:33.619Z,83.60
2017-07-20T05:43:00.097Z,83.60
2017-07-20T05:45:26.669Z,83.80
2017-07-20T05:47:53.150Z,82.60
2017-07-20T05:50:20.350Z,85.60
2017-07-20T05:52:46.809Z,84.90
2017-07-20T05:55:13.267Z,84.50
2017-07-20T05:57:39.787Z,83.80
2017-07-20T06:00:06.258Z,83.40
2017-07-20T06:02:32.769Z,82.90
2017-07-20T06:04:59.993Z,84.40
2017-07-20T06:07:27.296Z,85.00
2017-07-20T06:09:53.780Z,84.90
2017-07-20T06:12:20.258Z,84.10
2017-07-20T06:14:46.740Z,81.70
2017-07-20T06:17:13.969Z,85.40
2017-07-20T06:19:40.495Z,85.40
2017-07-20T06:22:06.930Z,87.50
2017-07-20T06:24:33.426Z,86.70
2017-07-20T06:27:00.612Z,87.00
2017-07-20T06:29:27.110Z,86.90
2017-07-20T06:31:53.593Z,87.80
2017-07-20T06:34:20.055Z,86.40
2017-07-20T06:36:46.561Z,86.90
2017-07-20T06:39:13.810Z,86.50
2017-07-20T06:41:40.304Z,86.50
2017-07-20T06:44:06.790Z,85.50
2017-07-20T06:46:34.021Z,81.20
2017-07-20T06:49:00.549Z,81.20
2017-07-20T06:51:27.147Z,83.40
2017-07-20T06:53:53.707Z,83.50
2017-07-20T06:56:20.225Z,84.60
2017-07-20T06:58:46.708Z,84.50
2017-07-20T07:01:13.213Z,84.50
2017-07-20T07:03:39.693Z,82.70
2017-07-20T07:06:06.934Z,81.00
2017-07-20T07:08:33.468Z,80.40
2017-07-20T07:11:00.028Z,81.60
2017-07-20T07:13:26.554Z,79.50
2017-07-20T07:15:53.146Z,82.30
2017-07-20T07:18:19.668Z,79.90
2017-07-20T07:20:46.181Z,80.90
2017-07-20T07:23:12.734Z,80.30
2017-07-20T07:25:39.221Z,78.60
2017-07-20T07:28:05.732Z,80.60
2017-07-20T07:30:32.268Z,81.60
2017-07-20T07:32:58.803Z,81.70
2017-07-20T07:35:25.340Z,81.00
2017-07-20T07:37:52.590Z,81.50
2017-07-20T07:40:19.074Z,81.40
2017-07-20T07:42:45.746Z,80.30
2017-07-20T07:45:12.254Z,80.50
2017-07-20T07:47:38.767Z,79.90
2017-07-20T07:50:05.273Z,80.50
2017-07-20T07:52:31.784Z,80.80
2017-07-20T07:54:58.326Z,82.30
2017-07-20T07:57:24.878Z,81.10
2017-07-20T07:59:52.135Z,78.80
2017-07-20T08:02:18.683Z,78.80
2017-07-20T08:04:45.162Z,80.90
2017-07-20T08:07:11.646Z,80.70
2017-07-20T08:12:14.148Z,80.50
2017-07-20T08:14:40.665Z,78.90
2017-07-20T08:17:07.167Z,76.60
2017-07-20T08:19:33.672Z,79.30
2017-07-20T08:22:00.181Z,80.00
2017-07-20T08:24:26.691Z,81.20
2017-07-20T08:26:53.214Z,80.70
2017-07-20T08:29:20.458Z,81.70
2017-07-20T08:31:46.966Z,81.70
2017-07-20T08:34:13.455Z,79.60
2017-07-20T08:36:39.931Z,78.40
2017-07-20T08:39:06.470Z,79.60
2017-07-20T08:41:32.950Z,77.90
2017-07-20T08:43:59.483Z,76.80
2017-07-20T08:46:25.986Z,76.80
2017-07-20T08:48:52.500Z,76.00
2017-07-20T08:51:18.989Z,76.80
2017-07-20T08:53:45.458Z,75.50
2017-07-20T08:56:11.924Z,73.10
2017-07-20T08:58:38.423Z,72.50
2017-07-20T09:01:04.895Z,75.60
2017-07-20T09:03:31.360Z,70.60
2017-07-20T09:05:57.812Z,70.30
2017-07-20T09:08:24.273Z,71.50
2017-07-20T09:10:50.543Z,69.60
2017-07-20T09:13:17.529Z,69.70
2017-07-20T09:15:44.587Z,69.00
2017-07-20T09:18:10.845Z,69.00
2017-07-20T09:20:37.857Z,70.10
2017-07-20T09:23:04.138Z,70.10
2017-07-20T09:25:30.398Z,70.40
2017-07-20T09:27:56.671Z,70.40
2017-07-20T09:30:23.666Z,67.90
2017-07-20T09:32:49.983Z,67.20
2017-07-20T09:35:16.258Z,68.20
2017-07-20T09:37:42.532Z,66.20
2017-07-20T09:40:08.779Z,68.50
2017-07-20T09:42:35.065Z,69.80
2017-07-20T09:45:13.707Z,65.50
2017-07-20T09:47:40.210Z,67.20
2017-07-20T09:50:07.436Z,65.50
2017-07-20T09:52:33.895Z,65.40
2017-07-20T09:55:00.385Z,66.30
2017-07-20T09:57:26.878Z,66.90
2017-07-20T09:59:54.090Z,65.60
2017-07-20T10:02:21.326Z,64.70
2017-07-20T10:04:48.566Z,66.70
2017-07-20T10:07:15.061Z,66.60
2017-07-20T10:09:41.559Z,65.90
2017-07-20T10:12:08.809Z,64.10
2017-07-20T10:14:35.336Z,64.00
2017-07-20T10:17:09.493Z,64.70
2017-07-20T10:19:35.996Z,64.60
2017-07-20T10:22:02.494Z,65.60
2017-07-20T10:24:28.961Z,65.60
2017-07-20T10:26:55.449Z,65.70
2017-07-20T10:29:21.960Z,65.90
2017-07-20T10:31:48.457Z,64.10
2017-07-20T10:34:14.922Z,63.60
2017-07-20T10:36:41.389Z,63.00
2017-07-20T10:39:07.890Z,63.70
2017-07-20T10:41:34.414Z,62.60
2017-07-20T10:44:01.642Z,61.00
2017-07-20T10:46:28.883Z,61.70
2017-07-20T10:48:55.385Z,61.70
2017-07-20T10:51:21.891Z,60.80
2017-07-20T10:53:48.389Z,60.80
2017-07-20T10:56:14.650Z,59.70
2017-07-20T10:58:41.636Z,58.80
2017-07-20T11:01:07.913Z,58.70
2017-07-20T11:03:34.174Z,57.30
2017-07-20T11:06:00.434Z,58.80
2017-07-20T11:08:26.724Z,58.70
2017-07-20T11:10:52.968Z,58.30
2017-07-20T11:13:19.283Z,57.00
2017-07-20T11:15:45.546Z,56.50
2017-07-20T11:18:11.843Z,57.50
2017-07-20T11:20:38.166Z,57.50
2017-07-20T11:23:04.544Z,56.30
2017-07-20T11:25:30.823Z,54.50
2017-07-20T11:27:57.106Z,56.30
2017-07-20T11:30:25.834Z,54.70
2017-07-20T11:32:52.140Z,53.60
2017-07-20T11:35:19.239Z,53.70
2017-07-20T11:37:45.573Z,53.50
2017-07-20T11:40:11.877Z,52.60
2017-07-20T11:42:38.173Z,50.70
2017-07-20T11:45:05.227Z,52.90
2017-07-20T11:47:31.509Z,53.10
2017-07-20T11:49:57.742Z,50.80
2017-07-20T11:52:23.995Z,52.70
2017-07-20T11:54:50.246Z,53.40
2017-07-20T11:57:16.500Z,52.40
2017-07-20T11:59:42.747Z,49.70
2017-07-20T12:02:09.017Z,48.00
2017-07-20T12:04:35.259Z,44.60
2017-07-20T12:07:01.533Z,45.40
2017-07-20T12:09:27.801Z,45.20
2017-07-20T12:11:54.811Z,45.40
2017-07-20T12:14:21.048Z,45.30
2017-07-20T12:16:47.289Z,45.30
2017-07-20T12:19:13.537Z,46.00
2017-07-20T12:21:39.785Z,48.40
2017-07-20T12:24:06.021Z,48.80
2017-07-20T12:26:32.258Z,49.00
2017-07-20T12:28:58.512Z,51.80
2017-07-20T12:31:24.754Z,52.60
2017-07-20T12:33:51.757Z,49.50
2017-07-20T12:36:18.013Z,49.30
2017-07-20T12:38:44.285Z,54.70
2017-07-20T12:41:10.540Z,48.70
2017-07-20T12:43:36.807Z,50.80
2017-07-20T12:46:03.058Z,51.10
2017-07-20T12:48:29.342Z,50.60
2017-07-20T12:50:55.595Z,51.40
2017-07-20T12:53:21.850Z,52.70
2017-07-20T12:55:48.097Z,48.90
2017-07-20T12:58:14.350Z,43.60
2017-07-20T13:00:40.622Z,37.80
2017-07-20T13:03:06.882Z,36.20
2017-07-20T13:05:33.174Z,34.60
2017-07-20T13:08:00.161Z,34.00
2017-07-20T13:10:26.421Z,33.70
2017-07-20T13:12:59.505Z,32.60
2017-07-20T13:15:26.555Z,33.00
2017-07-20T13:17:52.824Z,32.20
2017-07-20T13:20:19.073Z,33.70
2017-07-20T13:22:45.340Z,30.50
2017-07-20T13:25:11.594Z,30.70
2017-07-20T13:27:38.601Z,29.60
2017-07-20T13:30:04.851Z,29.60
2017-07-20T13:32:31.115Z,28.40
2017-07-20T13:34:57.420Z,31.50
2017-07-20T13:37:23.703Z,28.30
2017-07-20T13:39:49.941Z,28.10
2017-07-20T13:42:16.266Z,28.20
2017-07-20T13:44:42.563Z,28.20
2017-07-20T13:47:08.826Z,29.90
2017-07-20T13:49:35.094Z,28.10
2017-07-20T13:52:01.384Z,27.80
2017-07-20T13:54:27.702Z,27.20
2017-07-20T13:56:53.959Z,28.10
2017-07-20T13:59:20.250Z,30.60
2017-07-20T14:01:46.545Z,31.20
2017-07-20T14:04:12.826Z,32.80
2017-07-20T14:06:39.113Z,32.70
2017-07-20T14:09:05.426Z,30.10
2017-07-20T14:11:31.746Z,30.00
2017-07-20T14:13:58.765Z,32.90
2017-07-20T14:16:25.056Z,32.90
2017-07-20T14:18:51.385Z,31.70
2017-07-20T14:21:17.648Z,28.60
2017-07-20T14:23:44.145Z,27.70
2017-07-20T14:26:10.412Z,27.80
2017-07-20T14:28:37.421Z,26.90
2017-07-20T14:31:03.706Z,27.00
2017-07-20T14:33:30.706Z,27.80
2017-07-20T14:35:56.986Z,27.80
2017-07-20T14:38:23.280Z,27.80
2017-07-20T14:40:49.558Z,29.30
2017-07-20T14:43:15.842Z,29.30
2017-07-20T14:45:42.124Z,29.30
2017-07-20T14:48:08.410Z,30.10
2017-07-20T14:50:34.891Z,29.00
2017-07-20T14:53:01.395Z,28.70
2017-07-20T14:55:27.957Z,28.80
2017-07-20T14:57:54.463Z,29.80
2017-07-20T15:00:20.971Z,29.10
2017-07-20T15:02:47.442Z,28.90
2017-07-20T15:05:13.974Z,28.30
2017-07-20T15:07:40.437Z,29.90
2017-07-20T15:10:06.939Z,28.50
2017-07-20T15:12:33.425Z,29.40
2017-07-20T15:14:59.958Z,28.70
2017-07-20T15:17:26.447Z,29.60
2017-07-20T15:19:53.049Z,29.50
2017-07-20T15:22:19.562Z,28.90
2017-07-20T15:24:46.047Z,29.00
2017-07-20T15:27:12.597Z,28.40
2017-07-20T15:29:39.114Z,29.30
2017-07-20T15:32:05.679Z,30.00
2017-07-20T15:34:32.152Z,29.00
2017-07-20T15:36:58.669Z,30.30
2017-07-20T15:39:25.158Z,30.70
2017-07-20T15:41:51.680Z,31.80
2017-07-20T15:44:18.162Z,32.30
2017-07-20T15:46:44.645Z,31.60
2017-07-20T15:49:11.180Z,32.00
2017-07-20T15:51:37.669Z,32.50
2017-07-20T15:54:04.195Z,32.00
2017-07-20T15:56:30.687Z,32.30
2017-07-20T15:58:57.197Z,33.50
2017-07-20T16:01:23.698Z,33.60
2017-07-20T16:03:50.231Z,33.10
2017-07-20T16:06:17.466Z,33.40
2017-07-20T16:08:43.981Z,33.30
2017-07-20T16:11:10.456Z,32.70
2017-07-20T16:13:36.982Z,32.40
2017-07-20T16:16:04.277Z,33.10
2017-07-20T16:18:30.815Z,32.20
2017-07-20T16:20:58.147Z,32.10
2017-07-20T16:23:24.669Z,32.10
2017-07-20T16:25:51.176Z,33.90
2017-07-20T16:28:17.670Z,32.40
2017-07-20T16:30:44.198Z,33.40
2017-07-20T16:33:10.714Z,34.40
2017-07-20T16:35:37.993Z,35.10
2017-07-20T16:38:04.505Z,35.00
2017-07-20T16:40:31.028Z,34.40
2017-07-20T16:42:57.506Z,34.10
2017-07-20T16:45:24.061Z,34.60
2017-07-20T16:47:50.627Z,36.20
2017-07-20T16:50:17.165Z,35.00
2017-07-20T16:52:43.662Z,34.80
2017-07-20T16:55:10.163Z,35.00
2017-07-20T16:57:36.700Z,34.10
2017-07-20T17:00:03.130Z,35.60
2017-07-20T17:02:29.637Z,35.10
2017-07-20T17:04:56.116Z,34.30
2017-07-20T17:07:22.631Z,34.80
2017-07-20T17:09:49.034Z,35.10
2017-07-20T17:12:15.549Z,35.10
2017-07-20T17:14:42.042Z,35.20
2017-07-20T17:17:08.537Z,34.60
2017-07-20T17:19:35.039Z,35.60
2017-07-20T17:22:01.646Z,35.30
2017-07-20T17:24:28.184Z,35.60
2017-07-20T17:26:55.877Z,35.30
2017-07-20T17:29:22.468Z,35.60
2017-07-20T17:31:48.946Z,35.00
2017-07-20T17:34:16.178Z,36.20
2017-07-20T17:36:42.638Z,36.10
2017-07-20T17:39:09.120Z,35.80
2017-07-20T17:41:35.661Z,35.80
2017-07-20T17:44:02.196Z,36.70
2017-07-20T17:46:28.656Z,36.00
2017-07-20T17:48:55.287Z,36.00
2017-07-20T17:51:21.783Z,36.70
2017-07-20T17:53:48.290Z,37.80
2017-07-20T17:56:14.868Z,36.70
2017-07-20T17:58:41.352Z,37.50
2017-07-20T18:01:08.605Z,37.80
2017-07-20T18:03:35.109Z,37.80
2017-07-20T18:06:02.402Z,37.90
2017-07-20T18:08:28.897Z,37.80
2017-07-20T18:10:55.399Z,37.80
2017-07-20T18:13:21.910Z,37.90
2017-07-20T18:15:48.444Z,37.80
2017-07-20T18:18:14.985Z,37.70
2017-07-20T18:20:41.494Z,38.40
2017-07-20T18:23:08.013Z,37.60
2017-07-20T18:25:34.530Z,37.50
2017-07-20T18:28:01.034Z,38.70
2017-07-20T18:30:27.547Z,37.90
2017-07-20T18:32:54.082Z,38.10
2017-07-20T18:35:20.547Z,38.40
2017-07-20T18:37:47.120Z,38.60
2017-07-20T18:40:14.345Z,38.90
2017-07-20T18:42:41.619Z,39.10
2017-07-20T18:45:08.121Z,38.70
2017-07-20T18:47:34.645Z,39.30
2017-07-20T18:50:01.121Z,40.60
2017-07-20T18:52:28.406Z,42.70
2017-07-20T18:54:54.893Z,42.70
2017-07-20T18:57:21.408Z,46.30
2017-07-20T18:59:47.889Z,52.80
2017-07-20T19:02:14.373Z,53.40
2017-07-20T19:04:40.881Z,55.80
2017-07-20T19:07:07.385Z,60.20
2017-07-20T19:09:33.898Z,60.70
2017-07-20T19:12:00.590Z,59.80
2017-07-20T19:14:27.086Z,59.80
2017-07-20T19:16:53.582Z,60.90
2017-07-20T19:19:20.125Z,58.40
2017-07-20T19:21:46.629Z,61.30
2017-07-20T19:24:13.160Z,61.40
2017-07-20T19:26:39.615Z,59.80
2017-07-20T19:29:06.121Z,60.70
2017-07-20T19:31:32.632Z,58.50
2017-07-20T19:33:59.955Z,59.80
2017-07-20T19:36:28.352Z,61.00
2017-07-20T19:38:55.760Z,60.60
2017-07-20T19:41:23.028Z,60.20
2017-07-20T19:43:50.070Z,57.90
2017-07-20T19:46:17.225Z,58.70
2017-07-20T19:48:44.420Z,56.90
2017-07-20T19:51:12.154Z,56.00
2017-07-20T19:53:39.303Z,55.40
2017-07-20T19:56:06.886Z,55.20
2017-07-20T19:58:34.003Z,55.10
2017-07-20T20:01:00.949Z,55.30
2017-07-20T20:03:28.198Z,56.00
2017-07-20T20:05:55.010Z,54.30
2017-07-20T20:08:22.550Z,56.00
2017-07-20T20:10:49.339Z,54.60
2017-07-20T20:13:15.934Z,54.00
2017-07-20T20:15:42.596Z,55.50
2017-07-20T20:18:09.081Z,55.80
2017-07-20T20:20:35.573Z,56.30
2017-07-20T20:23:02.790Z,56.50
2017-07-20T20:25:29.321Z,56.50
2017-07-20T20:27:56.110Z,56.30
2017-07-20T20:30:23.470Z,56.30
2017-07-20T20:32:51.052Z,55.40
2017-07-20T20:35:18.573Z,54.80
2017-07-20T20:37:45.924Z,54.60
2017-07-20T20:40:13.349Z,55.30
2017-07-20T20:42:40.343Z,54.20
2017-07-20T20:45:07.866Z,54.50
2017-07-20T20:47:35.082Z,54.80
2017-07-20T20:50:02.604Z,53.60
2017-07-20T20:52:29.624Z,54.00
2017-07-20T20:54:56.445Z,53.30
2017-07-20T20:57:22.980Z,52.50
2017-07-20T20:59:49.599Z,54.00
2017-07-20T21:02:16.247Z,53.30
2017-07-20T21:04:43.204Z,53.20
2017-07-20T21:07:09.720Z,53.30
2017-07-20T21:09:36.246Z,53.40
2017-07-20T21:12:02.826Z,54.30
2017-07-20T21:14:30.072Z,54.50
2017-07-20T21:16:56.772Z,54.40
2017-07-20T21:19:23.332Z,55.30
2017-07-20T21:21:49.882Z,55.60
2017-07-20T21:24:16.482Z,55.70
2017-07-20T21:26:42.918Z,55.80
2017-07-20T21:29:09.415Z,56.00
2017-07-20T21:31:35.958Z,55.50
2017-07-20T21:34:02.506Z,56.60
2017-07-20T21:36:28.998Z,55.90
2017-07-20T21:38:55.533Z,54.80
2017-07-20T21:41:22.022Z,55.70
2017-07-20T21:43:48.522Z,55.70
2017-07-20T21:46:15.021Z,56.30
2017-07-20T21:48:41.529Z,56.90
2017-07-20T21:51:07.987Z,57.40
2017-07-20T21:53:41.377Z,57.40
2017-07-20T21:56:08.582Z,58.70
2017-07-20T21:58:35.037Z,58.60
2017-07-20T22:01:01.541Z,59.80
2017-07-20T22:03:28.017Z,59.40
2017-07-20T22:05:54.503Z,59.60
2017-07-20T22:08:20.965Z,59.70
2017-07-20T22:10:47.449Z,60.00
2017-07-20T22:13:14.651Z,60.10
2017-07-20T22:15:41.162Z,60.00
2017-07-20T22:18:07.602Z,60.40
2017-07-20T22:20:34.103Z,60.80
2017-07-20T22:23:00.565Z,60.90
2017-07-20T22:25:27.034Z,61.20
2017-07-20T22:27:53.751Z,61.60
2017-07-20T22:30:20.277Z,61.70
2017-07-20T22:32:46.742Z,61.60
2017-07-20T22:35:13.233Z,61.90
2017-07-20T22:37:39.745Z,61.60
2017-07-20T22:40:06.222Z,61.40
2017-07-20T22:42:32.725Z,61.60
2017-07-20T22:44:59.185Z,61.60
2017-07-20T22:47:25.685Z,61.90
2017-07-20T22:49:52.158Z,61.80
2017-07-20T22:52:19.413Z,61.30
2017-07-20T22:54:45.882Z,61.10
2017-07-20T22:57:12.565Z,61.20
2017-07-20T22:59:38.959Z,60.80
2017-07-20T23:02:05.428Z,61.70
2017-07-20T23:04:31.878Z,61.00
2017-07-20T23:06:58.341Z,60.70
2017-07-20T23:09:24.837Z,60.60
2017-07-20T23:11:51.301Z,59.90
2017-07-20T23:14:17.825Z,59.80
2017-07-20T23:16:44.285Z,59.60
2017-07-20T23:19:10.818Z,58.80
2017-07-20T23:21:37.312Z,58.50
2017-07-20T23:24:03.783Z,59.50
2017-07-20T23:26:31.003Z,58.30
2017-07-20T23:28:57.521Z,58.20
2017-07-20T23:31:23.997Z,58.70
2017-07-20T23:33:50.456Z,58.60
2017-07-20T23:36:16.965Z,58.10
2017-07-20T23:38:43.406Z,57.80
2017-07-20T23:41:09.846Z,58.40
2017-07-20T23:43:36.345Z,56.90
2017-07-20T23:46:02.839Z,57.60
2017-07-20T23:48:29.309Z,57.60
2017-07-20T23:50:56.334Z,58.20
2017-07-20T23:53:23.556Z,57.20
2017-07-20T23:55:50.070Z,57.20
2017-07-20T23:58:16.575Z,56.20
